Pagina principală
METAR-TAF:

METAR-TAF

Aeroporturi :

Guasdualito, Venezuela

Latitudine: 07-14N, longitudine: 070-48W, elevație: 130 m

Observații meteo curente

Raportul a fost făcut în urmă cu 1 oră și 15 de minute, la 23:03 UTC
Vânt 3 kt de la Sud-est
Temperatură 30°C
Umiditate 66%
Presiune 1014 hPa

METAR: SVGD 192303Z AUTO 14003KT NCD 30/23 Q1014

Ora: 20:18 (00:18 UTC)


TAF: lipsă

Observații și prognoze meteo pentru peste 4.000 de aeroporturi (rapoarte METAR și TAF).

Stațiile disponibile sunt reprezentate pe hartă prin puncte galbene și roșii.

Țineți indicatorul mouse-ului pe punctul dorit pentru a vedea denumirea stației.

Apoi, faceți clic pentru a vedea observațiile și prognozele meteorologice.

Pentru a schimba harta: Pentru mărire, faceți clic pe butoanele verzi cu cruce neagră; pentru micșorare, pe butonul verde cu o liniuță; pentru hărți învecinate, pe săgețile verzi.


METAR-TAF: